createdAt,value
2019-04-16T00:00:43.551Z,3.56
2019-04-16T00:05:52.490Z,3.57
2019-04-16T00:11:01.430Z,4.02
2019-04-16T00:16:13.006Z,4.15
2019-04-16T00:21:18.910Z,3.80
2019-04-16T00:26:27.849Z,3.54
2019-04-16T00:31:39.586Z,3.76
2019-04-16T00:36:38.599Z,3.69
2019-04-16T00:41:47.556Z,4.06
2019-04-16T00:46:56.693Z,3.61
2019-04-16T00:52:06.953Z,3.82
2019-04-16T00:57:17.774Z,3.87
2019-04-16T01:02:22.439Z,4.02
2019-04-16T01:07:31.409Z,4.11
2019-04-16T01:12:40.371Z,4.11
2019-04-16T01:17:49.335Z,4.27
2019-04-16T01:22:58.302Z,3.85
2019-04-16T01:28:07.223Z,4.14
2019-04-16T01:33:16.158Z,4.27
2019-04-16T01:38:27.841Z,4.17
2019-04-16T01:43:33.768Z,4.13
2019-04-16T01:48:43.030Z,4.97
2019-04-16T01:53:52.325Z,4.53
2019-04-16T01:59:04.604Z,4.39
2019-04-16T02:04:08.950Z,4.60
2019-04-16T02:09:22.712Z,4.70
2019-04-16T02:14:26.374Z,4.29
2019-04-16T02:19:35.299Z,4.47
2019-04-16T02:24:44.238Z,4.35
2019-04-16T02:29:53.836Z,4.50
2019-04-16T02:35:01.660Z,4.36
2019-04-16T02:40:16.662Z,4.61
2019-04-16T02:45:23.203Z,4.69
2019-04-16T02:50:31.905Z,4.63
2019-04-16T02:55:42.589Z,4.58
2019-04-16T03:00:49.057Z,5.05
2019-04-16T03:05:53.284Z,4.61
2019-04-16T03:11:02.199Z,4.34
2019-04-16T03:16:11.130Z,4.43
2019-04-16T03:21:20.189Z,4.36
2019-04-16T03:26:29.139Z,5.17
2019-04-16T03:31:38.075Z,4.46
2019-04-16T03:36:46.994Z,4.53
2019-04-16T03:41:56.825Z,4.81
2019-04-16T03:47:04.438Z,4.96
2019-04-16T03:52:13.387Z,5.09
2019-04-16T03:57:22.299Z,4.95
2019-04-16T04:02:31.238Z,4.83
2019-04-16T04:07:43.898Z,4.50
2019-04-16T04:12:48.676Z,5.76
2019-04-16T04:17:57.645Z,5.36
2019-04-16T04:23:06.631Z,4.74
2019-04-16T04:28:18.490Z,5.00
2019-04-16T04:33:24.083Z,4.98
2019-04-16T04:38:33.574Z,5.29
2019-04-16T04:43:41.544Z,4.71
2019-04-16T04:48:55.002Z,4.95
2019-04-16T04:53:58.916Z,5.57
2019-04-16T04:59:07.839Z,4.93
2019-04-16T05:04:20.380Z,4.65
2019-04-16T05:09:25.294Z,4.85
2019-04-16T05:14:34.554Z,4.78
2019-04-16T05:19:43.857Z,4.90
2019-04-16T05:24:51.939Z,5.09
2019-04-16T05:30:00.870Z,5.77
2019-04-16T05:35:10.782Z,5.37
2019-04-16T05:40:18.516Z,5.18
2019-04-16T05:45:27.205Z,4.83
2019-04-16T05:50:36.163Z,4.78
2019-04-16T05:55:49.670Z,4.68
2019-04-16T06:00:53.615Z,5.29
2019-04-16T06:06:02.550Z,5.19
2019-04-16T06:11:11.476Z,4.88
2019-04-16T06:16:24.333Z,5.36
2019-04-16T06:21:28.982Z,4.98
2019-04-16T06:26:38.958Z,5.14
2019-04-16T06:31:47.918Z,5.11
2019-04-16T06:36:56.851Z,5.65
2019-04-16T06:42:05.834Z,5.34
2019-04-16T06:47:14.778Z,5.35
2019-04-16T06:52:23.734Z,5.35
2019-04-16T06:57:32.722Z,5.04
2019-04-16T07:02:44.060Z,5.22
2019-04-16T07:07:50.142Z,5.49
2019-04-16T07:12:59.067Z,5.73
2019-04-16T07:18:08.058Z,5.75
2019-04-16T07:23:17.022Z,5.54
2019-04-16T07:28:26.781Z,5.76
2019-04-16T07:33:34.570Z,5.57
2019-04-16T07:38:43.522Z,5.54
2019-04-16T07:43:52.567Z,5.58
2019-04-16T07:49:01.427Z,5.59
2019-04-16T07:54:10.342Z,6.02
2019-04-16T07:59:19.318Z,5.84
2019-04-16T08:04:29.191Z,5.85
2019-04-16T08:09:36.758Z,5.82
2019-04-16T08:14:45.766Z,5.93
2019-04-16T08:19:55.532Z,5.99
2019-04-16T08:25:04.130Z,5.31
2019-04-16T08:30:12.005Z,5.80
2019-04-16T08:35:20.607Z,6.01
2019-04-16T08:40:29.684Z,6.01
2019-04-16T08:45:39.882Z,6.07
2019-04-16T08:50:49.311Z,6.41
2019-04-16T08:55:55.532Z,6.11
2019-04-16T09:01:04.526Z,6.05
2019-04-16T09:06:14.177Z,6.32
2019-04-16T09:11:23.625Z,6.09
2019-04-16T09:16:30.451Z,6.33
2019-04-16T09:21:43.409Z,6.25
2019-04-16T09:26:47.851Z,6.11
2019-04-16T09:31:56.919Z,6.29
2019-04-16T09:37:05.887Z,6.43
2019-04-16T09:42:14.883Z,6.81
2019-04-16T09:47:23.851Z,6.57
2019-04-16T09:52:32.771Z,6.47
2019-04-16T09:57:41.721Z,6.39
2019-04-16T10:03:01.711Z,6.21
2019-04-16T10:08:00.810Z,6.38
2019-04-16T10:13:09.771Z,6.41
2019-04-16T10:18:18.920Z,5.80
2019-04-16T10:23:27.852Z,6.33
2019-04-16T10:28:37.052Z,6.14
2019-04-16T10:33:45.281Z,5.62
2019-04-16T10:38:54.259Z,6.33
2019-04-16T10:44:03.197Z,6.48
2019-04-16T10:49:12.127Z,6.13
2019-04-16T10:54:21.127Z,6.52
2019-04-16T10:59:30.075Z,6.10
2019-04-16T11:04:42.966Z,6.34
2019-04-16T11:09:47.482Z,6.28
2019-04-16T11:14:56.509Z,6.37
2019-04-16T11:20:06.194Z,6.19
2019-04-16T11:25:13.875Z,6.54
2019-04-16T11:30:22.834Z,6.29
2019-04-16T11:35:31.775Z,6.15
2019-04-16T11:40:41.238Z,6.44
2019-04-16T11:45:49.210Z,6.31
2019-04-16T11:50:58.142Z,6.39
2019-04-16T11:56:07.128Z,6.60
2019-04-16T12:01:16.108Z,6.34
2019-04-16T12:06:28.426Z,6.50
2019-04-16T12:11:33.605Z,6.34
2019-04-16T12:16:42.553Z,6.21
2019-04-16T12:21:51.532Z,6.94
2019-04-16T12:27:00.555Z,6.85
2019-04-16T12:32:09.484Z,6.35
2019-04-16T12:37:18.420Z,6.25
2019-04-16T12:42:27.574Z,6.50
2019-04-16T12:47:36.516Z,6.01
2019-04-16T12:52:45.530Z,6.21
2019-04-16T12:57:54.434Z,6.20
2019-04-16T13:03:03.410Z,5.78
2019-04-16T13:08:12.346Z,6.15
2019-04-16T13:13:21.283Z,5.98
2019-04-16T13:18:30.260Z,6.11
2019-04-16T13:23:39.245Z,6.01
2019-04-16T13:28:48.239Z,5.33
2019-04-16T13:33:57.198Z,5.82
2019-04-16T13:39:06.190Z,5.02
2019-04-16T13:44:17.073Z,5.60
2019-04-16T13:49:24.490Z,6.25
2019-04-16T13:54:34.366Z,6.29
2019-04-16T13:59:40.586Z,6.14
2019-04-16T14:04:49.985Z,6.08
2019-04-16T14:09:59.204Z,6.34
2019-04-16T14:15:07.958Z,5.55
2019-04-16T14:20:17.090Z,5.40
2019-04-16T14:25:26.019Z,6.00
2019-04-16T14:30:34.966Z,5.29
2019-04-16T14:35:43.879Z,5.95
2019-04-16T14:40:52.851Z,5.02
2019-04-16T14:46:01.835Z,5.39
2019-04-16T14:51:11.880Z,5.82
2019-04-16T14:56:10.799Z,6.64
2019-04-16T15:01:19.739Z,5.52
2019-04-16T15:06:28.738Z,5.43
2019-04-16T15:11:37.674Z,4.83
2019-04-16T15:16:46.618Z,4.95
2019-04-16T15:21:55.550Z,5.03
2019-04-16T15:27:04.511Z,5.65
2019-04-16T15:32:13.450Z,5.05
2019-04-16T15:37:22.760Z,5.68
2019-04-16T15:42:30.943Z,5.70
2019-04-16T15:47:43.002Z,5.90
2019-04-16T15:52:48.465Z,5.42
2019-04-16T15:57:57.551Z,5.45
2019-04-16T16:03:06.472Z,4.76
2019-04-16T16:08:15.423Z,5.30
2019-04-16T16:13:26.516Z,4.97
2019-04-16T16:18:35.731Z,4.67
2019-04-16T16:23:41.305Z,4.82
2019-04-16T16:28:50.334Z,5.16
2019-04-16T16:33:59.263Z,5.16
2019-04-16T16:39:08.296Z,4.95
2019-04-16T16:44:17.213Z,4.80
2019-04-16T16:49:26.182Z,4.48
2019-04-16T16:54:35.145Z,4.32
2019-04-16T16:59:44.090Z,3.59
2019-04-16T17:04:53.046Z,3.91
2019-04-16T17:10:01.968Z,3.97
2019-04-16T17:15:11.003Z,3.96
2019-04-16T17:20:19.938Z,4.01
2019-04-16T17:25:36.120Z,4.12
2019-04-16T17:30:37.475Z,4.31
2019-04-16T17:35:47.126Z,4.08
2019-04-16T17:40:58.995Z,4.22
2019-04-16T17:46:05.451Z,4.02
2019-04-16T17:51:04.423Z,4.01
2019-04-16T17:56:13.388Z,3.73
2019-04-16T18:01:22.371Z,3.88
2019-04-16T18:06:31.354Z,3.87
2019-04-16T18:11:41.084Z,3.66
2019-04-16T18:16:49.978Z,3.88
2019-04-16T18:21:57.669Z,3.43
2019-04-16T18:27:06.378Z,3.74
2019-04-16T18:32:15.323Z,3.01
2019-04-16T18:37:24.279Z,2.73
2019-04-16T18:42:33.226Z,3.13
2019-04-16T18:47:42.209Z,3.19
2019-04-16T18:52:51.175Z,2.86
2019-04-16T18:58:00.181Z,2.85
2019-04-16T19:03:14.661Z,3.08
2019-04-16T19:08:17.814Z,2.90
2019-04-16T19:13:26.749Z,2.82
2019-04-16T19:18:35.847Z,3.15
2019-04-16T19:23:44.787Z,2.82
2019-04-16T19:28:53.770Z,2.76
2019-04-16T19:34:17.891Z,2.97
2019-04-16T19:39:15.096Z,3.22
2019-04-16T19:44:23.088Z,2.76
2019-04-16T19:54:37.396Z,2.57
2019-04-16T19:59:47.256Z,3.06
2019-04-16T20:05:15.265Z,2.72
2019-04-16T20:10:02.755Z,2.85
2019-04-16T20:15:10.513Z,2.75
2019-04-16T20:30:14.235Z,3.56
2019-04-16T20:35:23.162Z,3.17
2019-04-16T20:40:32.087Z,3.77
2019-04-16T20:45:41.055Z,3.80
2019-04-16T20:50:53.032Z,3.83
2019-04-16T20:55:58.674Z,3.31
2019-04-16T21:01:34.132Z,3.63
2019-04-16T21:06:16.110Z,3.52
2019-04-16T21:11:25.063Z,3.61
2019-04-16T21:16:34.573Z,4.06
2019-04-16T21:21:42.526Z,3.63
2019-04-16T21:26:51.870Z,3.91
2019-04-16T21:32:00.551Z,3.84
2019-04-16T21:37:10.577Z,3.77
2019-04-16T21:42:18.010Z,3.68
2019-04-16T21:47:26.983Z,3.60
2019-04-16T21:52:36.132Z,3.56
2019-04-16T21:57:46.066Z,3.26
2019-04-16T22:02:53.747Z,3.40
2019-04-16T22:08:02.688Z,3.12
2019-04-16T22:13:11.662Z,3.21
2019-04-16T22:18:20.630Z,3.21
2019-04-16T22:28:37.297Z,3.59
2019-04-16T22:33:46.247Z,3.14
2019-04-16T22:38:55.202Z,3.23
2019-04-16T22:44:04.177Z,3.04
2019-04-16T22:49:13.105Z,2.65
2019-04-16T22:54:22.117Z,2.76
2019-04-16T22:59:31.093Z,2.53
2019-04-16T23:04:40.542Z,2.24
2019-04-16T23:09:49.510Z,2.33
2019-04-16T23:14:58.513Z,1.94
2019-04-16T23:20:07.590Z,2.17
2019-04-16T23:25:16.478Z,2.06
2019-04-16T23:30:25.458Z,1.66
2019-04-16T23:35:34.447Z,1.65
2019-04-16T23:40:43.917Z,1.77
2019-04-16T23:45:51.899Z,1.82
2019-04-16T23:51:00.902Z,1.79
2019-04-16T23:56:09.847Z,1.97
